sensor_id;sensor_type;location;lat;lon;timestamp;P1;durP1;ratioP1;P2;durP2;ratioP2
16436;SDS011;8328;52.206;21.006;2023-08-07T00:01:53;1.13;;;0.57;;
16436;SDS011;8328;52.206;21.006;2023-08-07T00:04:19;1.03;;;0.40;;
16436;SDS011;8328;52.206;21.006;2023-08-07T00:06:45;0.30;;;0.30;;
16436;SDS011;8328;52.206;21.006;2023-08-07T00:09:11;0.50;;;0.50;;
16436;SDS011;8328;52.206;21.006;2023-08-07T00:11:37;0.60;;;0.50;;
16436;SDS011;8328;52.206;21.006;2023-08-07T00:14:03;0.60;;;0.40;;
16436;SDS011;8328;52.206;21.006;2023-08-07T00:16:29;0.53;;;0.40;;
16436;SDS011;8328;52.206;21.006;2023-08-07T00:18:54;0.60;;;0.40;;
16436;SDS011;8328;52.206;21.006;2023-08-07T00:21:21;0.30;;;0.30;;
16436;SDS011;8328;52.206;21.006;2023-08-07T00:23:48;0.87;;;0.40;;
16436;SDS011;8328;52.206;21.006;2023-08-07T00:26:14;1.07;;;0.50;;
16436;SDS011;8328;52.206;21.006;2023-08-07T00:28:40;0.53;;;0.40;;
16436;SDS011;8328;52.206;21.006;2023-08-07T00:31:06;0.90;;;0.40;;
16436;SDS011;8328;52.206;21.006;2023-08-07T00:33:32;0.40;;;0.40;;
16436;SDS011;8328;52.206;21.006;2023-08-07T00:35:58;0.50;;;0.50;;
16436;SDS011;8328;52.206;21.006;2023-08-07T00:38:24;0.77;;;0.50;;
16436;SDS011;8328;52.206;21.006;2023-08-07T00:40:50;0.60;;;0.50;;
16436;SDS011;8328;52.206;21.006;2023-08-07T00:43:15;1.83;;;0.73;;
16436;SDS011;8328;52.206;21.006;2023-08-07T00:45:42;1.53;;;0.60;;
16436;SDS011;8328;52.206;21.006;2023-08-07T00:48:10;1.23;;;0.60;;
16436;SDS011;8328;52.206;21.006;2023-08-07T00:50:37;1.10;;;0.70;;
16436;SDS011;8328;52.206;21.006;2023-08-07T00:53:05;0.60;;;0.60;;
16436;SDS011;8328;52.206;21.006;2023-08-07T00:55:31;1.50;;;0.63;;
16436;SDS011;8328;52.206;21.006;2023-08-07T00:57:58;0.60;;;0.60;;
16436;SDS011;8328;52.206;21.006;2023-08-07T01:00:25;1.00;;;0.70;;
16436;SDS011;8328;52.206;21.006;2023-08-07T01:02:55;1.93;;;1.03;;
16436;SDS011;8328;52.206;21.006;2023-08-07T01:05:22;1.53;;;0.70;;
16436;SDS011;8328;52.206;21.006;2023-08-07T01:07:52;0.87;;;0.80;;
16436;SDS011;8328;52.206;21.006;2023-08-07T01:10:22;1.67;;;1.00;;
16436;SDS011;8328;52.206;21.006;2023-08-07T01:12:56;2.13;;;1.17;;
16436;SDS011;8328;52.206;21.006;2023-08-07T01:15:30;1.60;;;1.07;;
16436;SDS011;8328;52.206;21.006;2023-08-07T01:17:57;2.43;;;1.10;;
16436;SDS011;8328;52.206;21.006;2023-08-07T01:20:24;1.17;;;1.00;;
16436;SDS011;8328;52.206;21.006;2023-08-07T01:22:50;2.90;;;1.20;;
16436;SDS011;8328;52.206;21.006;2023-08-07T01:25:16;1.43;;;1.17;;
16436;SDS011;8328;52.206;21.006;2023-08-07T01:27:44;1.40;;;1.20;;
16436;SDS011;8328;52.206;21.006;2023-08-07T01:30:23;2.53;;;1.30;;
16436;SDS011;8328;52.206;21.006;2023-08-07T01:35:46;1.40;;;0.97;;
16436;SDS011;8328;52.206;21.006;2023-08-07T01:38:14;1.47;;;1.20;;
16436;SDS011;8328;52.206;21.006;2023-08-07T01:40:40;3.13;;;1.50;;
16436;SDS011;8328;52.206;21.006;2023-08-07T01:43:08;1.87;;;1.27;;
16436;SDS011;8328;52.206;21.006;2023-08-07T01:45:34;1.10;;;1.00;;
16436;SDS011;8328;52.206;21.006;2023-08-07T01:48:00;3.07;;;1.33;;
16436;SDS011;8328;52.206;21.006;2023-08-07T01:50:26;1.90;;;1.70;;
16436;SDS011;8328;52.206;21.006;2023-08-07T01:52:52;1.80;;;1.40;;
16436;SDS011;8328;52.206;21.006;2023-08-07T01:55:18;1.23;;;1.13;;
16436;SDS011;8328;52.206;21.006;2023-08-07T01:57:45;2.40;;;1.43;;
16436;SDS011;8328;52.206;21.006;2023-08-07T02:00:11;1.87;;;1.60;;
16436;SDS011;8328;52.206;21.006;2023-08-07T02:02:37;2.20;;;1.40;;
16436;SDS011;8328;52.206;21.006;2023-08-07T02:05:03;2.00;;;1.50;;
16436;SDS011;8328;52.206;21.006;2023-08-07T02:07:30;1.43;;;1.03;;
16436;SDS011;8328;52.206;21.006;2023-08-07T02:09:56;1.80;;;1.37;;
16436;SDS011;8328;52.206;21.006;2023-08-07T02:12:22;1.97;;;1.27;;
16436;SDS011;8328;52.206;21.006;2023-08-07T02:14:49;2.80;;;1.77;;
16436;SDS011;8328;52.206;21.006;2023-08-07T02:17:15;4.23;;;2.10;;
16436;SDS011;8328;52.206;21.006;2023-08-07T02:19:41;1.50;;;1.40;;
16436;SDS011;8328;52.206;21.006;2023-08-07T02:22:07;1.90;;;1.37;;
16436;SDS011;8328;52.206;21.006;2023-08-07T02:24:32;1.60;;;1.13;;
16436;SDS011;8328;52.206;21.006;2023-08-07T02:26:58;1.83;;;1.10;;
16436;SDS011;8328;52.206;21.006;2023-08-07T02:29:24;2.37;;;1.27;;
16436;SDS011;8328;52.206;21.006;2023-08-07T02:31:50;1.90;;;1.30;;
16436;SDS011;8328;52.206;21.006;2023-08-07T02:34:15;2.00;;;1.10;;
16436;SDS011;8328;52.206;21.006;2023-08-07T02:36:41;1.57;;;1.47;;
16436;SDS011;8328;52.206;21.006;2023-08-07T02:39:07;1.43;;;1.20;;
16436;SDS011;8328;52.206;21.006;2023-08-07T02:41:33;1.97;;;1.40;;
16436;SDS011;8328;52.206;21.006;2023-08-07T02:43:58;1.40;;;1.00;;
16436;SDS011;8328;52.206;21.006;2023-08-07T02:46:24;1.20;;;1.10;;
16436;SDS011;8328;52.206;21.006;2023-08-07T02:48:50;2.10;;;1.17;;
16436;SDS011;8328;52.206;21.006;2023-08-07T02:51:16;1.33;;;1.10;;
16436;SDS011;8328;52.206;21.006;2023-08-07T02:53:42;2.57;;;1.20;;
16436;SDS011;8328;52.206;21.006;2023-08-07T02:56:07;1.33;;;1.20;;
16436;SDS011;8328;52.206;21.006;2023-08-07T02:58:33;2.10;;;1.10;;
16436;SDS011;8328;52.206;21.006;2023-08-07T03:01:03;0.80;;;0.67;;
16436;SDS011;8328;52.206;21.006;2023-08-07T03:03:31;2.37;;;1.10;;
16436;SDS011;8328;52.206;21.006;2023-08-07T03:05:57;1.40;;;1.30;;
16436;SDS011;8328;52.206;21.006;2023-08-07T03:08:22;1.90;;;1.23;;
16436;SDS011;8328;52.206;21.006;2023-08-07T03:10:52;2.03;;;1.10;;
16436;SDS011;8328;52.206;21.006;2023-08-07T03:13:19;1.33;;;1.23;;
16436;SDS011;8328;52.206;21.006;2023-08-07T03:15:45;1.73;;;1.10;;
16436;SDS011;8328;52.206;21.006;2023-08-07T03:18:10;1.20;;;1.03;;
16436;SDS011;8328;52.206;21.006;2023-08-07T03:20:37;1.33;;;1.23;;
16436;SDS011;8328;52.206;21.006;2023-08-07T03:23:02;1.90;;;1.50;;
16436;SDS011;8328;52.206;21.006;2023-08-07T03:25:28;2.33;;;1.50;;
16436;SDS011;8328;52.206;21.006;2023-08-07T03:27:54;1.40;;;1.30;;
16436;SDS011;8328;52.206;21.006;2023-08-07T03:30:20;1.70;;;1.60;;
16436;SDS011;8328;52.206;21.006;2023-08-07T03:32:46;3.10;;;1.50;;
16436;SDS011;8328;52.206;21.006;2023-08-07T03:35:11;1.50;;;1.40;;
16436;SDS011;8328;52.206;21.006;2023-08-07T03:37:37;1.60;;;1.13;;
16436;SDS011;8328;52.206;21.006;2023-08-07T03:40:03;1.70;;;1.60;;
16436;SDS011;8328;52.206;21.006;2023-08-07T03:42:30;2.23;;;1.60;;
16436;SDS011;8328;52.206;21.006;2023-08-07T03:44:55;2.50;;;1.70;;
16436;SDS011;8328;52.206;21.006;2023-08-07T03:47:21;3.03;;;1.70;;
16436;SDS011;8328;52.206;21.006;2023-08-07T03:49:47;2.00;;;1.80;;
16436;SDS011;8328;52.206;21.006;2023-08-07T03:52:13;2.10;;;1.63;;
16436;SDS011;8328;52.206;21.006;2023-08-07T03:54:39;1.60;;;1.43;;
16436;SDS011;8328;52.206;21.006;2023-08-07T03:57:05;4.17;;;2.30;;
16436;SDS011;8328;52.206;21.006;2023-08-07T03:59:33;1.80;;;1.70;;
16436;SDS011;8328;52.206;21.006;2023-08-07T04:01:59;2.50;;;2.13;;
16436;SDS011;8328;52.206;21.006;2023-08-07T04:04:24;2.33;;;1.90;;
16436;SDS011;8328;52.206;21.006;2023-08-07T04:06:50;2.03;;;1.83;;
16436;SDS011;8328;52.206;21.006;2023-08-07T04:09:16;2.20;;;2.00;;
16436;SDS011;8328;52.206;21.006;2023-08-07T04:11:42;2.03;;;1.80;;
16436;SDS011;8328;52.206;21.006;2023-08-07T04:14:08;2.60;;;2.00;;
16436;SDS011;8328;52.206;21.006;2023-08-07T04:16:33;1.73;;;1.63;;
16436;SDS011;8328;52.206;21.006;2023-08-07T04:18:59;2.10;;;1.90;;
16436;SDS011;8328;52.206;21.006;2023-08-07T04:21:25;2.57;;;1.97;;
16436;SDS011;8328;52.206;21.006;2023-08-07T04:23:51;1.80;;;1.60;;
16436;SDS011;8328;52.206;21.006;2023-08-07T04:26:16;1.63;;;1.40;;
16436;SDS011;8328;52.206;21.006;2023-08-07T04:28:42;1.70;;;1.50;;
16436;SDS011;8328;52.206;21.006;2023-08-07T04:31:08;1.40;;;1.30;;
16436;SDS011;8328;52.206;21.006;2023-08-07T04:33:34;3.20;;;1.33;;
16436;SDS011;8328;52.206;21.006;2023-08-07T04:36:01;3.47;;;1.60;;
16436;SDS011;8328;52.206;21.006;2023-08-07T04:38:27;1.97;;;1.50;;
16436;SDS011;8328;52.206;21.006;2023-08-07T04:40:52;1.37;;;1.27;;
16436;SDS011;8328;52.206;21.006;2023-08-07T04:43:18;1.67;;;1.10;;
16436;SDS011;8328;52.206;21.006;2023-08-07T04:45:45;1.40;;;0.87;;
16436;SDS011;8328;52.206;21.006;2023-08-07T04:48:11;1.43;;;1.00;;
16436;SDS011;8328;52.206;21.006;2023-08-07T04:50:37;1.50;;;1.20;;
16436;SDS011;8328;52.206;21.006;2023-08-07T04:53:06;1.57;;;0.90;;
16436;SDS011;8328;52.206;21.006;2023-08-07T04:55:32;1.00;;;0.90;;
16436;SDS011;8328;52.206;21.006;2023-08-07T04:57:58;1.70;;;1.13;;
16436;SDS011;8328;52.206;21.006;2023-08-07T05:00:24;0.77;;;0.70;;
16436;SDS011;8328;52.206;21.006;2023-08-07T05:02:50;0.97;;;0.83;;
16436;SDS011;8328;52.206;21.006;2023-08-07T05:05:17;1.00;;;0.90;;
16436;SDS011;8328;52.206;21.006;2023-08-07T05:07:46;1.53;;;1.00;;
16436;SDS011;8328;52.206;21.006;2023-08-07T05:10:13;1.10;;;0.90;;
16436;SDS011;8328;52.206;21.006;2023-08-07T05:12:39;2.00;;;1.10;;
16436;SDS011;8328;52.206;21.006;2023-08-07T05:15:05;1.33;;;1.03;;
16436;SDS011;8328;52.206;21.006;2023-08-07T05:17:33;1.00;;;0.90;;
16436;SDS011;8328;52.206;21.006;2023-08-07T05:19:58;3.43;;;1.00;;
16436;SDS011;8328;52.206;21.006;2023-08-07T05:22:24;2.50;;;1.23;;
16436;SDS011;8328;52.206;21.006;2023-08-07T05:24:50;1.33;;;1.10;;
16436;SDS011;8328;52.206;21.006;2023-08-07T05:27:16;1.37;;;1.23;;
16436;SDS011;8328;52.206;21.006;2023-08-07T05:29:42;1.77;;;1.20;;
16436;SDS011;8328;52.206;21.006;2023-08-07T05:32:10;1.37;;;1.27;;
16436;SDS011;8328;52.206;21.006;2023-08-07T05:34:37;2.17;;;1.07;;
16436;SDS011;8328;52.206;21.006;2023-08-07T05:37:03;2.40;;;2.13;;
16436;SDS011;8328;52.206;21.006;2023-08-07T05:39:30;3.20;;;1.50;;
16436;SDS011;8328;52.206;21.006;2023-08-07T05:41:55;1.97;;;1.60;;
16436;SDS011;8328;52.206;21.006;2023-08-07T05:44:24;1.57;;;1.47;;
16436;SDS011;8328;52.206;21.006;2023-08-07T05:46:50;2.23;;;1.67;;
16436;SDS011;8328;52.206;21.006;2023-08-07T05:49:16;1.80;;;1.63;;
16436;SDS011;8328;52.206;21.006;2023-08-07T05:51:42;2.50;;;1.67;;
16436;SDS011;8328;52.206;21.006;2023-08-07T05:54:10;1.60;;;1.50;;
16436;SDS011;8328;52.206;21.006;2023-08-07T05:56:37;2.10;;;1.90;;
16436;SDS011;8328;52.206;21.006;2023-08-07T05:59:03;2.07;;;1.87;;
16436;SDS011;8328;52.206;21.006;2023-08-07T06:01:29;1.87;;;1.73;;
16436;SDS011;8328;52.206;21.006;2023-08-07T06:03:56;3.57;;;2.67;;
16436;SDS011;8328;52.206;21.006;2023-08-07T06:06:23;3.57;;;2.43;;
16436;SDS011;8328;52.206;21.006;2023-08-07T06:08:53;3.27;;;2.00;;
16436;SDS011;8328;52.206;21.006;2023-08-07T06:11:20;2.00;;;1.83;;
16436;SDS011;8328;52.206;21.006;2023-08-07T06:13:45;2.70;;;1.80;;
16436;SDS011;8328;52.206;21.006;2023-08-07T06:16:11;4.17;;;1.93;;
16436;SDS011;8328;52.206;21.006;2023-08-07T06:18:37;1.73;;;1.50;;
16436;SDS011;8328;52.206;21.006;2023-08-07T06:21:03;2.43;;;1.30;;
16436;SDS011;8328;52.206;21.006;2023-08-07T06:23:31;4.70;;;2.47;;
16436;SDS011;8328;52.206;21.006;2023-08-07T06:26:01;1.23;;;1.13;;
16436;SDS011;8328;52.206;21.006;2023-08-07T06:28:29;2.13;;;1.70;;
16436;SDS011;8328;52.206;21.006;2023-08-07T06:31:01;1.90;;;1.50;;
16436;SDS011;8328;52.206;21.006;2023-08-07T06:33:38;3.67;;;1.70;;
16436;SDS011;8328;52.206;21.006;2023-08-07T06:36:04;12.30;;;2.07;;
16436;SDS011;8328;52.206;21.006;2023-08-07T06:38:31;1.90;;;1.40;;
16436;SDS011;8328;52.206;21.006;2023-08-07T06:40:57;2.77;;;1.53;;
16436;SDS011;8328;52.206;21.006;2023-08-07T06:43:23;2.63;;;1.70;;
16436;SDS011;8328;52.206;21.006;2023-08-07T06:45:56;0.77;;;0.77;;
16436;SDS011;8328;52.206;21.006;2023-08-07T06:48:36;2.07;;;1.40;;
16436;SDS011;8328;52.206;21.006;2023-08-07T06:51:02;1.83;;;1.40;;
16436;SDS011;8328;52.206;21.006;2023-08-07T06:53:28;3.63;;;2.00;;
16436;SDS011;8328;52.206;21.006;2023-08-07T06:55:55;2.20;;;1.70;;
16436;SDS011;8328;52.206;21.006;2023-08-07T06:58:21;2.63;;;1.30;;
16436;SDS011;8328;52.206;21.006;2023-08-07T07:00:46;1.93;;;1.30;;
16436;SDS011;8328;52.206;21.006;2023-08-07T07:03:13;3.30;;;1.43;;
16436;SDS011;8328;52.206;21.006;2023-08-07T07:05:39;2.40;;;1.73;;
16436;SDS011;8328;52.206;21.006;2023-08-07T07:08:07;2.30;;;1.60;;
16436;SDS011;8328;52.206;21.006;2023-08-07T07:10:33;2.30;;;1.53;;
16436;SDS011;8328;52.206;21.006;2023-08-07T07:12:59;2.40;;;1.80;;
16436;SDS011;8328;52.206;21.006;2023-08-07T07:15:25;3.37;;;2.07;;
16436;SDS011;8328;52.206;21.006;2023-08-07T07:17:51;1.57;;;1.03;;
16436;SDS011;8328;52.206;21.006;2023-08-07T07:20:17;1.60;;;1.40;;
16436;SDS011;8328;52.206;21.006;2023-08-07T07:22:43;2.23;;;1.47;;
16436;SDS011;8328;52.206;21.006;2023-08-07T07:25:09;1.13;;;0.90;;
16436;SDS011;8328;52.206;21.006;2023-08-07T07:27:35;1.43;;;1.20;;
16436;SDS011;8328;52.206;21.006;2023-08-07T07:30:01;1.80;;;1.30;;
16436;SDS011;8328;52.206;21.006;2023-08-07T07:32:26;1.13;;;0.97;;
16436;SDS011;8328;52.206;21.006;2023-08-07T07:34:52;1.50;;;1.00;;
16436;SDS011;8328;52.206;21.006;2023-08-07T07:37:18;1.50;;;1.40;;
16436;SDS011;8328;52.206;21.006;2023-08-07T07:39:44;2.07;;;1.20;;
16436;SDS011;8328;52.206;21.006;2023-08-07T07:42:10;1.50;;;1.40;;
16436;SDS011;8328;52.206;21.006;2023-08-07T07:44:35;3.50;;;1.37;;
16436;SDS011;8328;52.206;21.006;2023-08-07T07:47:02;1.97;;;1.40;;
16436;SDS011;8328;52.206;21.006;2023-08-07T07:49:27;2.17;;;1.20;;
16436;SDS011;8328;52.206;21.006;2023-08-07T07:51:53;1.93;;;1.13;;
16436;SDS011;8328;52.206;21.006;2023-08-07T07:54:20;1.87;;;1.17;;
16436;SDS011;8328;52.206;21.006;2023-08-07T07:56:46;3.07;;;1.23;;
16436;SDS011;8328;52.206;21.006;2023-08-07T07:59:12;1.10;;;1.00;;
16436;SDS011;8328;52.206;21.006;2023-08-07T08:01:38;1.73;;;1.13;;
16436;SDS011;8328;52.206;21.006;2023-08-07T08:04:04;1.60;;;1.40;;
16436;SDS011;8328;52.206;21.006;2023-08-07T08:06:30;1.37;;;1.27;;
16436;SDS011;8328;52.206;21.006;2023-08-07T08:08:56;2.17;;;1.50;;
16436;SDS011;8328;52.206;21.006;2023-08-07T08:11:22;1.93;;;1.00;;
16436;SDS011;8328;52.206;21.006;2023-08-07T08:13:48;0.80;;;0.70;;
16436;SDS011;8328;52.206;21.006;2023-08-07T08:16:14;4.10;;;1.20;;
16436;SDS011;8328;52.206;21.006;2023-08-07T08:18:40;3.53;;;1.30;;
16436;SDS011;8328;52.206;21.006;2023-08-07T08:21:07;2.03;;;1.00;;
16436;SDS011;8328;52.206;21.006;2023-08-07T08:23:33;1.57;;;1.37;;
16436;SDS011;8328;52.206;21.006;2023-08-07T08:25:59;1.77;;;1.20;;
16436;SDS011;8328;52.206;21.006;2023-08-07T08:28:25;2.53;;;1.40;;
16436;SDS011;8328;52.206;21.006;2023-08-07T08:30:51;1.30;;;1.00;;
16436;SDS011;8328;52.206;21.006;2023-08-07T08:33:17;1.97;;;1.60;;
16436;SDS011;8328;52.206;21.006;2023-08-07T08:35:43;2.10;;;1.20;;
16436;SDS011;8328;52.206;21.006;2023-08-07T08:38:09;2.57;;;1.40;;
16436;SDS011;8328;52.206;21.006;2023-08-07T08:40:35;1.30;;;1.10;;
16436;SDS011;8328;52.206;21.006;2023-08-07T08:43:04;2.70;;;1.30;;
16436;SDS011;8328;52.206;21.006;2023-08-07T08:45:31;2.30;;;1.20;;
16436;SDS011;8328;52.206;21.006;2023-08-07T08:48:03;1.73;;;1.20;;
16436;SDS011;8328;52.206;21.006;2023-08-07T08:50:31;1.47;;;1.00;;
16436;SDS011;8328;52.206;21.006;2023-08-07T08:52:58;3.93;;;1.23;;
16436;SDS011;8328;52.206;21.006;2023-08-07T08:55:25;4.57;;;1.20;;
16436;SDS011;8328;52.206;21.006;2023-08-07T08:57:52;1.93;;;1.10;;
16436;SDS011;8328;52.206;21.006;2023-08-07T09:00:21;1.37;;;1.10;;
16436;SDS011;8328;52.206;21.006;2023-08-07T09:02:51;1.83;;;1.10;;
16436;SDS011;8328;52.206;21.006;2023-08-07T09:05:17;2.37;;;1.30;;
16436;SDS011;8328;52.206;21.006;2023-08-07T09:07:47;1.77;;;1.27;;
16436;SDS011;8328;52.206;21.006;2023-08-07T09:10:14;1.27;;;0.90;;
16436;SDS011;8328;52.206;21.006;2023-08-07T09:12:42;2.77;;;1.67;;
16436;SDS011;8328;52.206;21.006;2023-08-07T09:15:14;1.23;;;0.90;;
16436;SDS011;8328;52.206;21.006;2023-08-07T09:17:42;4.03;;;1.27;;
16436;SDS011;8328;52.206;21.006;2023-08-07T09:20:11;3.57;;;0.93;;
16436;SDS011;8328;52.206;21.006;2023-08-07T09:22:40;1.73;;;1.10;;
16436;SDS011;8328;52.206;21.006;2023-08-07T09:25:07;0.70;;;0.70;;
16436;SDS011;8328;52.206;21.006;2023-08-07T09:27:35;2.20;;;0.93;;
16436;SDS011;8328;52.206;21.006;2023-08-07T09:30:06;1.43;;;0.90;;
16436;SDS011;8328;52.206;21.006;2023-08-07T09:32:35;1.00;;;0.90;;
16436;SDS011;8328;52.206;21.006;2023-08-07T09:35:02;1.43;;;1.00;;
16436;SDS011;8328;52.206;21.006;2023-08-07T09:37:30;4.27;;;1.00;;
16436;SDS011;8328;52.206;21.006;2023-08-07T09:39:55;1.73;;;0.90;;
16436;SDS011;8328;52.206;21.006;2023-08-07T09:42:22;1.73;;;1.10;;
16436;SDS011;8328;52.206;21.006;2023-08-07T09:44:48;1.00;;;0.90;;
16436;SDS011;8328;52.206;21.006;2023-08-07T09:47:17;6.83;;;1.43;;
16436;SDS011;8328;52.206;21.006;2023-08-07T09:49:44;2.00;;;0.90;;
16436;SDS011;8328;52.206;21.006;2023-08-07T09:52:11;0.97;;;0.70;;
16436;SDS011;8328;52.206;21.006;2023-08-07T09:54:46;1.63;;;0.80;;
16436;SDS011;8328;52.206;21.006;2023-08-07T09:57:12;0.83;;;0.80;;
16436;SDS011;8328;52.206;21.006;2023-08-07T09:59:39;2.80;;;1.00;;
16436;SDS011;8328;52.206;21.006;2023-08-07T10:02:06;2.83;;;0.90;;
16436;SDS011;8328;52.206;21.006;2023-08-07T10:04:33;3.27;;;1.00;;
16436;SDS011;8328;52.206;21.006;2023-08-07T10:07:00;3.73;;;1.10;;
16436;SDS011;8328;52.206;21.006;2023-08-07T10:09:26;1.53;;;0.90;;
16436;SDS011;8328;52.206;21.006;2023-08-07T10:11:56;1.83;;;1.00;;
16436;SDS011;8328;52.206;21.006;2023-08-07T10:14:23;1.63;;;1.40;;
16436;SDS011;8328;52.206;21.006;2023-08-07T10:16:49;1.30;;;1.10;;
16436;SDS011;8328;52.206;21.006;2023-08-07T10:19:16;2.60;;;1.00;;
16436;SDS011;8328;52.206;21.006;2023-08-07T10:21:42;1.30;;;0.80;;
16436;SDS011;8328;52.206;21.006;2023-08-07T10:24:09;2.70;;;0.70;;
16436;SDS011;8328;52.206;21.006;2023-08-07T10:26:37;1.40;;;0.80;;
16436;SDS011;8328;52.206;21.006;2023-08-07T10:29:07;1.87;;;0.73;;
16436;SDS011;8328;52.206;21.006;2023-08-07T10:31:35;1.60;;;0.93;;
16436;SDS011;8328;52.206;21.006;2023-08-07T10:34:03;1.27;;;1.00;;
16436;SDS011;8328;52.206;21.006;2023-08-07T10:36:34;1.43;;;1.10;;
16436;SDS011;8328;52.206;21.006;2023-08-07T10:39:11;1.30;;;0.80;;
16436;SDS011;8328;52.206;21.006;2023-08-07T10:41:41;1.00;;;0.90;;
16436;SDS011;8328;52.206;21.006;2023-08-07T10:44:20;2.40;;;1.20;;
16436;SDS011;8328;52.206;21.006;2023-08-07T10:46:52;6.70;;;1.47;;
16436;SDS011;8328;52.206;21.006;2023-08-07T10:49:38;1.53;;;0.97;;
16436;SDS011;8328;52.206;21.006;2023-08-07T10:52:10;2.33;;;1.10;;
16436;SDS011;8328;52.206;21.006;2023-08-07T10:54:41;6.90;;;1.60;;
16436;SDS011;8328;52.206;21.006;2023-08-07T10:57:14;1.40;;;0.97;;
16436;SDS011;8328;52.206;21.006;2023-08-07T11:02:31;8.37;;;1.10;;
16436;SDS011;8328;52.206;21.006;2023-08-07T11:04:58;1.60;;;1.00;;
16436;SDS011;8328;52.206;21.006;2023-08-07T11:07:28;2.53;;;1.00;;
16436;SDS011;8328;52.206;21.006;2023-08-07T11:09:55;1.20;;;1.00;;
16436;SDS011;8328;52.206;21.006;2023-08-07T11:12:26;1.70;;;1.10;;
16436;SDS011;8328;52.206;21.006;2023-08-07T11:14:56;2.73;;;1.13;;
16436;SDS011;8328;52.206;21.006;2023-08-07T11:17:25;2.37;;;1.00;;
16436;SDS011;8328;52.206;21.006;2023-08-07T11:19:54;1.30;;;1.10;;
16436;SDS011;8328;52.206;21.006;2023-08-07T11:22:20;1.70;;;0.90;;
16436;SDS011;8328;52.206;21.006;2023-08-07T11:24:47;1.23;;;0.93;;
16436;SDS011;8328;52.206;21.006;2023-08-07T11:27:13;2.80;;;0.97;;
16436;SDS011;8328;52.206;21.006;2023-08-07T11:29:39;1.53;;;0.77;;
16436;SDS011;8328;52.206;21.006;2023-08-07T11:32:08;1.63;;;0.90;;
16436;SDS011;8328;52.206;21.006;2023-08-07T11:34:33;2.13;;;0.90;;
16436;SDS011;8328;52.206;21.006;2023-08-07T11:37:00;2.17;;;0.97;;
16436;SDS011;8328;52.206;21.006;2023-08-07T11:39:26;1.30;;;0.97;;
16436;SDS011;8328;52.206;21.006;2023-08-07T11:41:52;2.80;;;1.23;;
16436;SDS011;8328;52.206;21.006;2023-08-07T11:44:18;3.13;;;1.07;;
16436;SDS011;8328;52.206;21.006;2023-08-07T11:46:46;1.57;;;1.07;;
16436;SDS011;8328;52.206;21.006;2023-08-07T11:49:12;2.20;;;1.17;;
16436;SDS011;8328;52.206;21.006;2023-08-07T11:51:38;2.20;;;1.47;;
16436;SDS011;8328;52.206;21.006;2023-08-07T11:54:05;2.83;;;1.30;;
16436;SDS011;8328;52.206;21.006;2023-08-07T11:56:32;1.73;;;0.93;;
16436;SDS011;8328;52.206;21.006;2023-08-07T11:58:58;1.60;;;0.93;;
16436;SDS011;8328;52.206;21.006;2023-08-07T12:01:25;3.67;;;1.60;;
16436;SDS011;8328;52.206;21.006;2023-08-07T12:06:20;2.40;;;1.00;;
16436;SDS011;8328;52.206;21.006;2023-08-07T12:08:48;3.40;;;1.20;;
16436;SDS011;8328;52.206;21.006;2023-08-07T12:11:18;0.77;;;0.70;;
16436;SDS011;8328;52.206;21.006;2023-08-07T12:13:45;1.10;;;1.00;;
16436;SDS011;8328;52.206;21.006;2023-08-07T12:16:13;3.60;;;1.27;;
16436;SDS011;8328;52.206;21.006;2023-08-07T12:18:52;2.17;;;1.20;;
16436;SDS011;8328;52.206;21.006;2023-08-07T12:21:19;2.30;;;1.20;;
16436;SDS011;8328;52.206;21.006;2023-08-07T12:23:48;6.53;;;1.50;;
16436;SDS011;8328;52.206;21.006;2023-08-07T12:26:15;1.57;;;1.07;;
16436;SDS011;8328;52.206;21.006;2023-08-07T12:28:42;2.53;;;1.40;;
16436;SDS011;8328;52.206;21.006;2023-08-07T12:31:07;2.50;;;0.90;;
16436;SDS011;8328;52.206;21.006;2023-08-07T12:33:34;1.63;;;1.13;;
16436;SDS011;8328;52.206;21.006;2023-08-07T12:36:00;1.83;;;1.10;;
16436;SDS011;8328;52.206;21.006;2023-08-07T12:38:27;2.57;;;1.20;;
16436;SDS011;8328;52.206;21.006;2023-08-07T12:40:53;1.33;;;1.23;;
16436;SDS011;8328;52.206;21.006;2023-08-07T12:43:20;2.07;;;1.10;;
16436;SDS011;8328;52.206;21.006;2023-08-07T12:45:46;2.23;;;1.00;;
16436;SDS011;8328;52.206;21.006;2023-08-07T12:48:12;2.63;;;1.00;;
16436;SDS011;8328;52.206;21.006;2023-08-07T12:50:38;1.60;;;1.00;;
16436;SDS011;8328;52.206;21.006;2023-08-07T12:53:04;2.83;;;1.30;;
16436;SDS011;8328;52.206;21.006;2023-08-07T12:55:31;2.13;;;1.27;;
16436;SDS011;8328;52.206;21.006;2023-08-07T12:57:57;2.20;;;1.03;;
16436;SDS011;8328;52.206;21.006;2023-08-07T13:00:23;1.23;;;0.93;;
16436;SDS011;8328;52.206;21.006;2023-08-07T13:02:50;4.43;;;1.47;;
16436;SDS011;8328;52.206;21.006;2023-08-07T13:05:16;2.00;;;1.10;;
16436;SDS011;8328;52.206;21.006;2023-08-07T13:07:44;6.50;;;1.20;;
16436;SDS011;8328;52.206;21.006;2023-08-07T13:10:11;5.03;;;1.37;;
16436;SDS011;8328;52.206;21.006;2023-08-07T13:12:43;2.03;;;1.30;;
16436;SDS011;8328;52.206;21.006;2023-08-07T13:15:12;2.30;;;1.27;;
16436;SDS011;8328;52.206;21.006;2023-08-07T13:17:40;5.40;;;1.23;;
16436;SDS011;8328;52.206;21.006;2023-08-07T13:20:07;2.87;;;1.20;;
16436;SDS011;8328;52.206;21.006;2023-08-07T13:22:35;2.47;;;1.13;;
16436;SDS011;8328;52.206;21.006;2023-08-07T13:25:05;2.60;;;1.10;;
16436;SDS011;8328;52.206;21.006;2023-08-07T13:27:32;1.80;;;1.17;;
16436;SDS011;8328;52.206;21.006;2023-08-07T13:29:59;2.70;;;1.57;;
16436;SDS011;8328;52.206;21.006;2023-08-07T13:32:26;1.50;;;1.20;;
16436;SDS011;8328;52.206;21.006;2023-08-07T13:34:52;3.00;;;1.00;;
16436;SDS011;8328;52.206;21.006;2023-08-07T13:37:18;1.77;;;1.20;;
16436;SDS011;8328;52.206;21.006;2023-08-07T13:39:44;1.80;;;1.30;;
16436;SDS011;8328;52.206;21.006;2023-08-07T13:42:10;4.77;;;1.63;;
16436;SDS011;8328;52.206;21.006;2023-08-07T13:44:36;2.97;;;1.27;;
16436;SDS011;8328;52.206;21.006;2023-08-07T13:47:03;2.10;;;1.30;;
16436;SDS011;8328;52.206;21.006;2023-08-07T13:49:30;1.83;;;1.20;;
16436;SDS011;8328;52.206;21.006;2023-08-07T13:51:55;3.73;;;1.03;;
16436;SDS011;8328;52.206;21.006;2023-08-07T13:54:21;1.60;;;1.23;;
16436;SDS011;8328;52.206;21.006;2023-08-07T13:56:48;2.00;;;1.23;;
16436;SDS011;8328;52.206;21.006;2023-08-07T13:59:15;2.20;;;1.40;;
16436;SDS011;8328;52.206;21.006;2023-08-07T14:01:41;2.00;;;1.10;;
16436;SDS011;8328;52.206;21.006;2023-08-07T14:04:06;2.93;;;1.60;;
16436;SDS011;8328;52.206;21.006;2023-08-07T14:06:32;3.47;;;1.30;;
16436;SDS011;8328;52.206;21.006;2023-08-07T14:08:58;1.60;;;1.30;;
16436;SDS011;8328;52.206;21.006;2023-08-07T14:11:24;1.87;;;1.33;;
16436;SDS011;8328;52.206;21.006;2023-08-07T14:13:55;3.13;;;1.37;;
16436;SDS011;8328;52.206;21.006;2023-08-07T14:16:22;1.40;;;1.00;;
16436;SDS011;8328;52.206;21.006;2023-08-07T14:18:48;2.30;;;1.50;;
16436;SDS011;8328;52.206;21.006;2023-08-07T14:21:14;5.30;;;3.80;;
16436;SDS011;8328;52.206;21.006;2023-08-07T14:23:40;3.03;;;1.53;;
16436;SDS011;8328;52.206;21.006;2023-08-07T14:26:07;2.10;;;1.63;;
16436;SDS011;8328;52.206;21.006;2023-08-07T14:28:33;3.73;;;1.30;;
16436;SDS011;8328;52.206;21.006;2023-08-07T14:30:59;2.00;;;1.03;;
16436;SDS011;8328;52.206;21.006;2023-08-07T14:33:25;1.90;;;1.50;;
16436;SDS011;8328;52.206;21.006;2023-08-07T14:35:52;2.80;;;1.20;;
16436;SDS011;8328;52.206;21.006;2023-08-07T14:38:18;3.63;;;1.60;;
16436;SDS011;8328;52.206;21.006;2023-08-07T14:40:44;2.10;;;1.43;;
16436;SDS011;8328;52.206;21.006;2023-08-07T14:43:10;3.67;;;1.27;;
16436;SDS011;8328;52.206;21.006;2023-08-07T14:45:35;3.53;;;1.50;;
16436;SDS011;8328;52.206;21.006;2023-08-07T14:48:02;1.50;;;1.30;;
16436;SDS011;8328;52.206;21.006;2023-08-07T14:50:28;1.50;;;1.40;;
16436;SDS011;8328;52.206;21.006;2023-08-07T14:52:54;2.20;;;1.50;;
16436;SDS011;8328;52.206;21.006;2023-08-07T14:55:20;2.90;;;1.50;;